createdAt,value
2018-02-21T00:02:22.204Z,78.80
2018-02-21T00:05:06.200Z,79.83
2018-02-21T00:12:08.211Z,77.40
2018-02-21T00:14:35.726Z,73.37
2018-02-21T00:17:03.237Z,80.50
2018-02-21T00:19:31.540Z,84.10
2018-02-21T00:22:06.223Z,86.37
2018-02-21T00:27:18.814Z,81.03
2018-02-21T00:29:46.391Z,79.57
2018-02-21T00:32:34.653Z,83.63
2018-02-21T00:35:07.812Z,77.97
2018-02-21T00:37:35.310Z,69.73
2018-02-21T00:40:07.307Z,88.83
2018-02-21T00:42:34.841Z,84.63
2018-02-21T00:45:02.317Z,85.53
2018-02-21T00:47:39.266Z,90.10
2018-02-21T00:50:06.804Z,88.90
2018-02-21T00:52:35.926Z,84.90
2018-02-21T00:55:03.387Z,66.00
2018-02-21T00:57:37.794Z,80.93
2018-02-21T01:00:05.284Z,86.20
2018-02-21T01:02:33.050Z,84.30
2018-02-21T06:41:14.698Z,48.73
2018-02-21T06:44:04.408Z,51.70
2018-02-21T06:46:32.186Z,54.63
2018-02-21T06:49:06.914Z,52.73
2018-02-21T06:51:34.598Z,48.73
2018-02-21T06:54:04.169Z,51.37
2018-02-21T06:56:31.734Z,51.53
2018-02-21T06:59:05.276Z,53.13
2018-02-21T07:01:37.239Z,50.10
2018-02-21T07:04:04.796Z,51.53
2018-02-21T07:06:32.306Z,49.73
2018-02-21T07:08:59.941Z,48.63
2018-02-21T07:11:34.397Z,51.30
2018-02-21T07:14:02.920Z,47.23
2018-02-21T07:16:36.659Z,52.03
2018-02-21T07:19:04.542Z,52.13
2018-02-21T07:21:33.349Z,51.57
2018-02-21T07:24:07.751Z,50.70
2018-02-21T07:26:36.055Z,49.27
2018-02-21T07:29:05.214Z,49.47
2018-02-21T07:37:36.053Z,47.57
2018-02-21T07:40:05.797Z,44.03
2018-02-21T07:42:33.308Z,46.27
2018-02-21T07:45:08.465Z,44.33
2018-02-21T07:50:31.942Z,46.80
2018-02-21T07:53:05.428Z,46.57
2018-02-21T07:55:33.028Z,45.50
2018-02-21T08:00:51.064Z,49.93
2018-02-21T08:06:11.599Z,44.73
2018-02-21T08:08:44.863Z,39.43
2018-02-21T08:11:37.717Z,39.70
2018-02-21T08:14:06.028Z,47.60
2018-02-21T08:16:37.640Z,40.77
2018-02-21T08:19:05.511Z,44.47
2018-02-21T08:28:55.191Z,38.33
2018-02-21T08:31:22.706Z,37.43
2018-02-21T08:33:51.121Z,39.00
2018-02-21T08:36:35.801Z,42.97
2018-02-21T08:39:05.451Z,44.03
2018-02-21T08:41:35.858Z,43.60
2018-02-21T08:44:06.605Z,44.17
2018-02-21T08:49:35.062Z,42.03
2018-02-21T08:52:06.066Z,41.20
2018-02-21T09:00:18.756Z,40.47
2018-02-21T09:02:47.044Z,40.70
2018-02-21T09:05:19.311Z,36.97
2018-02-21T09:07:46.858Z,40.80
2018-02-21T09:10:14.356Z,40.93
2018-02-21T09:12:41.915Z,43.03
2018-02-21T09:15:10.173Z,42.07
2018-02-21T09:17:38.661Z,38.67
2018-02-21T09:20:12.508Z,42.27
2018-02-21T09:22:45.700Z,42.00
2018-02-21T09:25:20.029Z,38.30
2018-02-21T09:28:12.931Z,43.77
2018-02-21T09:30:46.268Z,38.90
2018-02-21T09:52:06.118Z,38.63
2018-02-21T09:54:36.858Z,37.50
2018-02-21T09:57:05.654Z,38.43
2018-02-21T09:59:36.002Z,40.57
2018-02-21T10:02:05.868Z,37.17
2018-02-21T10:04:36.490Z,40.90
2018-02-21T10:07:04.000Z,37.30
2018-02-21T10:09:36.166Z,37.07
2018-02-21T10:12:06.786Z,37.37
2018-02-21T10:14:37.657Z,39.20
2018-02-21T11:24:46.454Z,29.27
2018-02-21T11:27:24.896Z,30.50
2018-02-21T11:29:58.882Z,31.40
2018-02-21T11:32:27.639Z,29.30
2018-02-21T11:35:07.987Z,31.97
2018-02-21T11:37:35.844Z,32.50
2018-02-21T11:40:04.776Z,29.67
2018-02-21T11:42:32.337Z,33.97
2018-02-21T11:44:59.985Z,33.37
2018-02-21T11:47:43.811Z,35.20
2018-02-21T11:50:11.423Z,30.17
2018-02-21T11:52:39.020Z,32.33
2018-02-21T11:55:13.173Z,32.57
2018-02-21T11:57:41.201Z,26.47
2018-02-21T12:00:08.899Z,26.30
2018-02-21T12:02:36.561Z,32.00
2018-02-21T12:05:04.747Z,29.20
2018-02-21T12:07:35.143Z,31.57
2018-02-21T12:10:02.742Z,29.17
2018-02-21T12:12:30.617Z,34.87
2018-02-21T12:14:58.914Z,32.43
2018-02-21T12:17:26.454Z,36.70
2018-02-21T12:19:54.828Z,32.50
2018-02-21T12:22:23.672Z,30.07
2018-02-21T12:24:51.194Z,31.77
2018-02-21T12:27:18.694Z,31.43
2018-02-21T12:29:46.388Z,34.83
2018-02-21T12:35:15.714Z,30.50
2018-02-21T12:37:43.257Z,33.97
2018-02-21T12:40:17.189Z,28.30
2018-02-21T12:42:44.705Z,31.50
2018-02-21T12:45:12.214Z,29.70
2018-02-21T12:47:40.245Z,28.40
2018-02-21T12:50:07.826Z,37.43
2018-02-21T12:52:35.435Z,26.57
2018-02-21T12:55:03.962Z,29.50
2018-02-21T12:57:31.472Z,29.27
2018-02-21T12:59:59.022Z,31.40
2018-02-21T13:02:26.622Z,32.83
2018-02-21T13:04:54.201Z,31.57
2018-02-21T13:07:22.554Z,27.97
2018-02-21T13:09:50.821Z,30.17
2018-02-21T13:12:18.379Z,32.03
2018-02-21T13:14:45.933Z,29.33
2018-02-21T13:17:14.191Z,33.43
2018-02-21T13:19:42.726Z,35.23
2018-02-21T13:22:10.207Z,30.93
2018-02-21T13:24:37.719Z,31.63
2018-02-21T13:27:05.229Z,28.20
2018-02-21T13:29:32.859Z,29.47
2018-02-21T13:32:01.200Z,35.63
2018-02-21T13:34:28.766Z,29.77
2018-02-21T13:36:56.277Z,33.03
2018-02-21T13:39:23.933Z,31.50
2018-02-21T13:41:51.417Z,33.17
2018-02-21T13:44:19.136Z,35.20
2018-02-21T13:46:47.411Z,32.40
2018-02-21T13:49:14.933Z,32.57
2018-02-21T13:51:44.945Z,29.93
2018-02-21T13:54:12.427Z,29.60
2018-02-21T13:56:42.713Z,30.27
2018-02-21T13:59:10.201Z,34.03
2018-02-21T14:01:37.881Z,36.40
2018-02-21T14:04:05.537Z,34.77
2018-02-21T14:06:34.544Z,33.33
2018-02-21T14:09:02.853Z,31.63
2018-02-21T14:11:30.365Z,31.43
2018-02-21T14:13:58.127Z,30.40
2018-02-21T14:16:26.085Z,31.80
2018-02-21T14:18:53.741Z,36.50
2018-02-21T14:21:22.199Z,34.00
2018-02-21T14:23:50.551Z,36.40
2018-02-21T14:26:18.090Z,36.73
2018-02-21T14:28:46.361Z,39.97
2018-02-21T14:31:14.965Z,33.77
2018-02-21T14:33:43.485Z,35.03
2018-02-21T14:36:11.008Z,32.90
2018-02-21T14:38:38.598Z,35.37
2018-02-21T14:41:06.743Z,37.60
2018-02-21T14:43:35.290Z,31.83
2018-02-21T14:46:04.643Z,33.83
2018-02-21T14:48:32.734Z,32.73
2018-02-21T14:51:00.347Z,32.10
2018-02-21T14:53:36.124Z,32.33
2018-02-21T14:56:04.718Z,46.30
2018-02-21T14:58:32.743Z,32.97
2018-02-21T15:01:00.429Z,34.60
2018-02-21T15:03:27.994Z,32.70
2018-02-21T15:05:56.159Z,32.67
2018-02-21T15:08:25.661Z,33.80
2018-02-21T15:10:53.701Z,30.63
2018-02-21T15:13:21.282Z,35.57
2018-02-21T15:15:48.785Z,35.27
2018-02-21T15:18:16.313Z,33.00
2018-02-21T15:21:04.407Z,33.60
2018-02-21T15:23:44.329Z,29.90
2018-02-21T15:26:11.982Z,31.20
2018-02-21T15:28:39.517Z,34.67
2018-02-21T15:31:07.039Z,32.60
2018-02-21T15:33:38.966Z,34.20
2018-02-21T16:03:42.555Z,41.40
2018-02-21T16:09:36.082Z,39.73
2018-02-21T16:12:12.027Z,44.20
2018-02-21T16:20:36.206Z,41.93
2018-02-21T16:23:05.993Z,44.33
2018-02-21T16:25:37.658Z,45.80
2018-02-21T16:34:07.571Z,47.27
2018-02-21T16:39:38.948Z,51.10
2018-02-21T16:42:56.109Z,50.20
2018-02-21T16:45:36.816Z,53.23
2018-02-21T17:05:09.540Z,47.13
2018-02-21T17:19:39.985Z,39.50
2018-02-21T17:22:08.418Z,35.73
2018-02-21T17:24:36.938Z,37.50
2018-02-21T17:27:10.162Z,38.77
2018-02-21T17:29:38.617Z,35.37
2018-02-21T17:32:14.537Z,37.63
2018-02-21T17:34:42.197Z,36.87
2018-02-21T17:37:10.954Z,37.30
2018-02-21T17:39:42.132Z,37.97
2018-02-21T17:42:10.520Z,41.63
2018-02-21T17:44:39.262Z,35.27
2018-02-21T17:47:10.798Z,40.10
2018-02-21T17:49:41.056Z,35.13
2018-02-21T17:52:10.092Z,38.00
2018-02-21T17:54:39.632Z,40.03
2018-02-21T17:57:09.547Z,34.73
2018-02-21T17:59:40.126Z,37.73
2018-02-21T18:02:07.820Z,39.83
2018-02-21T18:04:39.124Z,38.13
2018-02-21T18:07:10.216Z,39.30
2018-02-21T18:09:38.729Z,35.90
2018-02-21T18:12:07.593Z,38.50
2018-02-21T18:14:36.662Z,35.17
2018-02-21T18:17:06.129Z,36.10
2018-02-21T18:19:34.074Z,31.30
2018-02-21T18:22:01.614Z,33.07
2018-02-21T18:24:46.618Z,38.17
2018-02-21T18:27:14.188Z,36.00
2018-02-21T18:29:41.792Z,33.73
2018-02-21T18:32:11.297Z,33.80
2018-02-21T18:34:38.785Z,43.30
2018-02-21T18:37:06.326Z,41.00
2018-02-21T18:39:34.477Z,38.00
2018-02-21T18:42:02.808Z,35.87
2018-02-21T18:44:30.974Z,33.93
2018-02-21T18:46:59.045Z,36.67
2018-02-21T18:49:26.516Z,37.83
2018-02-21T18:51:54.050Z,37.70
2018-02-21T18:54:42.742Z,40.60
2018-02-21T18:57:11.264Z,31.70
2018-02-21T18:59:38.796Z,33.23
2018-02-21T19:02:08.592Z,38.73
2018-02-21T19:04:39.969Z,38.13
2018-02-21T19:07:07.711Z,33.53
2018-02-21T19:21:43.352Z,37.10
2018-02-21T19:24:38.871Z,37.70
2018-02-21T19:30:36.736Z,35.47
2018-02-21T19:51:03.404Z,29.03
2018-02-21T20:11:09.753Z,31.93
2018-02-21T20:25:37.868Z,28.57
2018-02-21T20:28:06.153Z,29.00
2018-02-21T20:33:37.092Z,25.70
2018-02-21T20:36:05.367Z,26.53
2018-02-21T20:38:37.597Z,23.43
2018-02-21T20:41:05.960Z,22.60
2018-02-21T20:43:36.042Z,22.23
2018-02-21T20:46:06.308Z,24.13
2018-02-21T21:01:39.366Z,24.80
2018-02-21T21:04:08.200Z,23.03
2018-02-21T21:06:40.024Z,23.63
2018-02-21T21:09:07.534Z,22.03
2018-02-21T21:11:36.857Z,21.50
2018-02-21T21:14:07.098Z,24.83
2018-02-21T21:16:41.343Z,22.67
2018-02-21T21:19:09.265Z,21.43
2018-02-21T21:21:37.332Z,23.30
2018-02-21T21:24:05.663Z,21.77
2018-02-21T21:41:37.158Z,22.93
2018-02-21T21:47:09.826Z,21.43
2018-02-21T21:49:38.267Z,22.80
2018-02-21T21:52:06.033Z,21.43
2018-02-21T21:54:37.772Z,22.87
2018-02-21T21:57:06.111Z,20.07
2018-02-21T21:59:38.700Z,20.73
2018-02-21T22:02:06.592Z,19.60
2018-02-21T22:04:34.200Z,26.57
2018-02-21T22:07:02.803Z,26.07
2018-02-21T22:09:30.765Z,21.23
2018-02-21T22:12:06.918Z,21.57
2018-02-21T22:14:36.362Z,19.17
2018-02-21T22:17:04.291Z,22.10
2018-02-21T22:19:31.997Z,21.83
2018-02-21T22:22:10.261Z,20.33
2018-02-21T22:30:42.324Z,18.80
2018-02-21T22:33:11.433Z,19.33
2018-02-21T22:36:05.329Z,22.23
2018-02-21T22:38:35.523Z,20.97
2018-02-21T22:41:03.837Z,21.60
2018-02-21T22:43:31.693Z,19.97
2018-02-21T22:48:32.995Z,19.60
2018-02-21T22:51:07.883Z,20.37
2018-02-21T22:53:36.181Z,21.77
2018-02-21T22:56:03.689Z,19.80
2018-02-21T22:58:34.269Z,20.63
2018-02-21T23:01:01.909Z,17.93
2018-02-21T23:03:30.504Z,18.43
2018-02-21T23:06:05.265Z,21.00
2018-02-21T23:08:32.874Z,22.50
2018-02-21T23:24:55.494Z,17.53
2018-02-21T23:27:24.368Z,17.50
2018-02-21T23:29:52.817Z,19.63
2018-02-21T23:32:44.551Z,15.97
2018-02-21T23:38:07.644Z,18.53
2018-02-21T23:40:36.188Z,19.70
2018-02-21T23:43:03.763Z,17.97
2018-02-21T23:45:31.570Z,16.43
2018-02-21T23:47:59.056Z,16.70
2018-02-21T23:50:27.478Z,18.50
2018-02-21T23:52:55.002Z,18.73
2018-02-21T23:58:04.794Z,19.40
